sensor_id;sensor_type;location;lat;lon;timestamp;temperature;humidity
34201;DHT22;20469;55.638;37.670;2022-09-24T00:01:39;10.40;99.90
34201;DHT22;20469;55.638;37.670;2022-09-24T00:04:09;10.30;99.90
34201;DHT22;20469;55.638;37.670;2022-09-24T00:06:44;10.60;99.90
34201;DHT22;20469;55.638;37.670;2022-09-24T00:09:14;10.50;99.90
34201;DHT22;20469;55.638;37.670;2022-09-24T00:11:42;10.30;99.90
34201;DHT22;20469;55.638;37.670;2022-09-24T00:14:12;10.20;99.90
34201;DHT22;20469;55.638;37.670;2022-09-24T00:16:40;10.30;99.90
34201;DHT22;20469;55.638;37.670;2022-09-24T00:19:09;10.30;99.90
34201;DHT22;20469;55.638;37.670;2022-09-24T00:21:38;10.30;99.90
34201;DHT22;20469;55.638;37.670;2022-09-24T00:24:09;10.20;99.90
34201;DHT22;20469;55.638;37.670;2022-09-24T00:26:59;10.30;99.90
34201;DHT22;20469;55.638;37.670;2022-09-24T00:29:27;10.30;99.90
34201;DHT22;20469;55.638;37.670;2022-09-24T00:31:54;10.30;99.90
34201;DHT22;20469;55.638;37.670;2022-09-24T00:34:22;10.20;99.90
34201;DHT22;20469;55.638;37.670;2022-09-24T00:36:50;10.20;99.90
34201;DHT22;20469;55.638;37.670;2022-09-24T00:39:19;10.20;99.90
34201;DHT22;20469;55.638;37.670;2022-09-24T00:41:47;10.20;99.90
34201;DHT22;20469;55.638;37.670;2022-09-24T00:50:11;10.20;99.90
34201;DHT22;20469;55.638;37.670;2022-09-24T00:52:44;10.20;99.90
34201;DHT22;20469;55.638;37.670;2022-09-24T00:55:13;10.20;99.90
34201;DHT22;20469;55.638;37.670;2022-09-24T00:57:41;10.60;99.90
34201;DHT22;20469;55.638;37.670;2022-09-24T01:00:10;10.20;99.90
34201;DHT22;20469;55.638;37.670;2022-09-24T01:02:42;10.30;99.90
34201;DHT22;20469;55.638;37.670;2022-09-24T01:05:10;10.20;99.90
34201;DHT22;20469;55.638;37.670;2022-09-24T01:07:38;10.30;99.90
34201;DHT22;20469;55.638;37.670;2022-09-24T01:10:06;10.30;99.90
34201;DHT22;20469;55.638;37.670;2022-09-24T01:12:46;10.20;99.90
34201;DHT22;20469;55.638;37.670;2022-09-24T01:15:30;10.10;99.90
34201;DHT22;20469;55.638;37.670;2022-09-24T01:18:04;10.30;99.90
34201;DHT22;20469;55.638;37.670;2022-09-24T01:20:52;10.20;99.90
34201;DHT22;20469;55.638;37.670;2022-09-24T01:23:44;10.10;99.90
34201;DHT22;20469;55.638;37.670;2022-09-24T01:26:35;10.10;99.90
34201;DHT22;20469;55.638;37.670;2022-09-24T01:29:24;10.20;99.90
34201;DHT22;20469;55.638;37.670;2022-09-24T01:32:03;10.20;99.90
34201;DHT22;20469;55.638;37.670;2022-09-24T01:34:39;10.10;99.90
34201;DHT22;20469;55.638;37.670;2022-09-24T01:37:09;10.10;99.90
34201;DHT22;20469;55.638;37.670;2022-09-24T01:39:38;10.20;99.90
34201;DHT22;20469;55.638;37.670;2022-09-24T01:42:07;10.40;99.90
34201;DHT22;20469;55.638;37.670;2022-09-24T01:44:37;10.30;99.90
34201;DHT22;20469;55.638;37.670;2022-09-24T01:47:17;10.20;99.90
34201;DHT22;20469;55.638;37.670;2022-09-24T01:49:46;10.30;99.90
34201;DHT22;20469;55.638;37.670;2022-09-24T01:52:17;10.10;99.90
34201;DHT22;20469;55.638;37.670;2022-09-24T01:54:47;10.30;99.90
34201;DHT22;20469;55.638;37.670;2022-09-24T01:57:31;10.20;99.90
34201;DHT22;20469;55.638;37.670;2022-09-24T02:00:05;10.20;99.90
34201;DHT22;20469;55.638;37.670;2022-09-24T02:02:54;10.40;99.90
34201;DHT22;20469;55.638;37.670;2022-09-24T02:05:41;10.40;99.90
34201;DHT22;20469;55.638;37.670;2022-09-24T02:08:19;10.20;99.90
34201;DHT22;20469;55.638;37.670;2022-09-24T02:10:56;10.30;99.90
34201;DHT22;20469;55.638;37.670;2022-09-24T02:13:32;10.20;99.90
34201;DHT22;20469;55.638;37.670;2022-09-24T02:16:07;10.20;99.90
34201;DHT22;20469;55.638;37.670;2022-09-24T02:18:39;10.10;99.90
34201;DHT22;20469;55.638;37.670;2022-09-24T02:21:10;10.10;99.90
34201;DHT22;20469;55.638;37.670;2022-09-24T02:23:44;10.10;99.90
34201;DHT22;20469;55.638;37.670;2022-09-24T02:26:14;10.20;99.90
34201;DHT22;20469;55.638;37.670;2022-09-24T02:28:42;10.00;99.90
34201;DHT22;20469;55.638;37.670;2022-09-24T02:31:14;10.20;99.90
34201;DHT22;20469;55.638;37.670;2022-09-24T02:33:45;10.20;99.90
34201;DHT22;20469;55.638;37.670;2022-09-24T02:36:29;10.10;99.90
34201;DHT22;20469;55.638;37.670;2022-09-24T02:38:58;10.10;99.90
34201;DHT22;20469;55.638;37.670;2022-09-24T02:41:26;10.20;99.90
34201;DHT22;20469;55.638;37.670;2022-09-24T02:43:54;10.00;99.90
34201;DHT22;20469;55.638;37.670;2022-09-24T02:46:21;10.00;99.90
34201;DHT22;20469;55.638;37.670;2022-09-24T02:48:49;9.90;99.90
34201;DHT22;20469;55.638;37.670;2022-09-24T02:51:17;10.00;99.90
34201;DHT22;20469;55.638;37.670;2022-09-24T02:53:44;10.00;99.90
34201;DHT22;20469;55.638;37.670;2022-09-24T02:56:12;10.00;99.90
34201;DHT22;20469;55.638;37.670;2022-09-24T02:58:39;10.10;99.90
34201;DHT22;20469;55.638;37.670;2022-09-24T03:01:07;10.00;99.90
34201;DHT22;20469;55.638;37.670;2022-09-24T03:03:34;10.00;99.90
34201;DHT22;20469;55.638;37.670;2022-09-24T03:06:02;10.10;99.90
34201;DHT22;20469;55.638;37.670;2022-09-24T03:08:31;10.00;99.90
34201;DHT22;20469;55.638;37.670;2022-09-24T03:10:59;10.00;99.90
34201;DHT22;20469;55.638;37.670;2022-09-24T03:13:27;10.90;99.90
34201;DHT22;20469;55.638;37.670;2022-09-24T03:15:54;10.00;99.90
34201;DHT22;20469;55.638;37.670;2022-09-24T03:18:22;10.00;99.90
34201;DHT22;20469;55.638;37.670;2022-09-24T03:21:01;10.00;99.90
34201;DHT22;20469;55.638;37.670;2022-09-24T03:23:28;10.10;99.90
34201;DHT22;20469;55.638;37.670;2022-09-24T03:25:56;10.00;99.90
34201;DHT22;20469;55.638;37.670;2022-09-24T03:28:25;10.00;99.90
34201;DHT22;20469;55.638;37.670;2022-09-24T03:30:53;10.00;99.90
34201;DHT22;20469;55.638;37.670;2022-09-24T03:33:38;10.00;99.90
34201;DHT22;20469;55.638;37.670;2022-09-24T03:36:12;10.00;99.90
34201;DHT22;20469;55.638;37.670;2022-09-24T03:38:43;10.00;99.90
34201;DHT22;20469;55.638;37.670;2022-09-24T03:41:12;10.10;99.90
34201;DHT22;20469;55.638;37.670;2022-09-24T03:43:40;10.00;99.90
34201;DHT22;20469;55.638;37.670;2022-09-24T03:46:10;10.00;99.90
34201;DHT22;20469;55.638;37.670;2022-09-24T03:48:39;10.00;99.90
34201;DHT22;20469;55.638;37.670;2022-09-24T03:51:10;9.90;99.90
34201;DHT22;20469;55.638;37.670;2022-09-24T03:53:38;9.90;99.90
34201;DHT22;20469;55.638;37.670;2022-09-24T03:56:06;9.90;99.90
34201;DHT22;20469;55.638;37.670;2022-09-24T03:58:35;10.00;99.90
34201;DHT22;20469;55.638;37.670;2022-09-24T04:01:05;10.00;99.90
34201;DHT22;20469;55.638;37.670;2022-09-24T04:03:33;9.90;99.90
34201;DHT22;20469;55.638;37.670;2022-09-24T04:06:01;9.80;99.90
34201;DHT22;20469;55.638;37.670;2022-09-24T04:08:28;9.80;99.90
34201;DHT22;20469;55.638;37.670;2022-09-24T04:10:59;10.00;99.90
34201;DHT22;20469;55.638;37.670;2022-09-24T04:13:26;9.80;99.90
34201;DHT22;20469;55.638;37.670;2022-09-24T04:15:54;9.80;99.90
34201;DHT22;20469;55.638;37.670;2022-09-24T04:18:22;9.90;99.90
34201;DHT22;20469;55.638;37.670;2022-09-24T04:20:50;9.80;99.90
34201;DHT22;20469;55.638;37.670;2022-09-24T04:23:23;9.80;99.90
34201;DHT22;20469;55.638;37.670;2022-09-24T04:25:51;9.70;99.90
34201;DHT22;20469;55.638;37.670;2022-09-24T04:28:20;9.70;99.90
34201;DHT22;20469;55.638;37.670;2022-09-24T04:30:49;9.80;99.90
34201;DHT22;20469;55.638;37.670;2022-09-24T04:33:16;9.70;99.90
34201;DHT22;20469;55.638;37.670;2022-09-24T04:35:44;9.80;99.90
34201;DHT22;20469;55.638;37.670;2022-09-24T04:38:12;9.80;99.90
34201;DHT22;20469;55.638;37.670;2022-09-24T04:40:40;9.80;99.90
34201;DHT22;20469;55.638;37.670;2022-09-24T04:43:08;10.00;99.90
34201;DHT22;20469;55.638;37.670;2022-09-24T04:45:36;9.80;99.90
34201;DHT22;20469;55.638;37.670;2022-09-24T04:48:04;9.70;99.90
34201;DHT22;20469;55.638;37.670;2022-09-24T04:50:32;9.70;99.90
34201;DHT22;20469;55.638;37.670;2022-09-24T04:53:00;9.80;99.90
34201;DHT22;20469;55.638;37.670;2022-09-24T04:55:28;9.90;99.90
34201;DHT22;20469;55.638;37.670;2022-09-24T04:57:58;9.80;99.90
34201;DHT22;20469;55.638;37.670;2022-09-24T05:00:26;10.00;99.90
34201;DHT22;20469;55.638;37.670;2022-09-24T05:02:58;9.70;99.90
34201;DHT22;20469;55.638;37.670;2022-09-24T05:05:26;9.80;99.90
34201;DHT22;20469;55.638;37.670;2022-09-24T05:07:54;9.80;99.90
34201;DHT22;20469;55.638;37.670;2022-09-24T05:10:25;9.60;99.90
34201;DHT22;20469;55.638;37.670;2022-09-24T05:12:52;9.70;99.90
34201;DHT22;20469;55.638;37.670;2022-09-24T05:15:21;9.70;99.90
34201;DHT22;20469;55.638;37.670;2022-09-24T05:17:48;9.70;99.90
34201;DHT22;20469;55.638;37.670;2022-09-24T05:20:16;9.70;99.90
34201;DHT22;20469;55.638;37.670;2022-09-24T05:22:45;9.60;99.90
34201;DHT22;20469;55.638;37.670;2022-09-24T05:25:14;9.70;99.90
34201;DHT22;20469;55.638;37.670;2022-09-24T05:27:45;9.60;99.90
34201;DHT22;20469;55.638;37.670;2022-09-24T05:30:13;9.80;99.90
34201;DHT22;20469;55.638;37.670;2022-09-24T05:32:42;9.80;99.90
34201;DHT22;20469;55.638;37.670;2022-09-24T05:35:10;9.80;99.90
34201;DHT22;20469;55.638;37.670;2022-09-24T05:37:38;9.70;99.90
34201;DHT22;20469;55.638;37.670;2022-09-24T05:40:09;9.60;99.90
34201;DHT22;20469;55.638;37.670;2022-09-24T05:42:59;9.60;99.90
34201;DHT22;20469;55.638;37.670;2022-09-24T05:45:28;9.60;99.90
34201;DHT22;20469;55.638;37.670;2022-09-24T05:47:56;9.60;99.90
34201;DHT22;20469;55.638;37.670;2022-09-24T05:50:26;9.60;99.90
34201;DHT22;20469;55.638;37.670;2022-09-24T05:52:54;9.60;99.90
34201;DHT22;20469;55.638;37.670;2022-09-24T05:55:22;9.70;99.90
34201;DHT22;20469;55.638;37.670;2022-09-24T05:57:54;9.70;99.90
34201;DHT22;20469;55.638;37.670;2022-09-24T06:00:22;9.70;99.90
34201;DHT22;20469;55.638;37.670;2022-09-24T06:02:50;9.50;99.90
34201;DHT22;20469;55.638;37.670;2022-09-24T06:05:17;9.50;99.90
34201;DHT22;20469;55.638;37.670;2022-09-24T06:07:45;9.50;99.90
34201;DHT22;20469;55.638;37.670;2022-09-24T06:10:13;9.50;99.90
34201;DHT22;20469;55.638;37.670;2022-09-24T06:12:41;9.60;99.90
34201;DHT22;20469;55.638;37.670;2022-09-24T06:15:09;9.50;99.90
34201;DHT22;20469;55.638;37.670;2022-09-24T06:17:36;9.40;99.90
34201;DHT22;20469;55.638;37.670;2022-09-24T06:20:05;9.40;99.90
34201;DHT22;20469;55.638;37.670;2022-09-24T06:22:32;9.50;99.90
34201;DHT22;20469;55.638;37.670;2022-09-24T06:25:00;9.50;99.90
34201;DHT22;20469;55.638;37.670;2022-09-24T06:27:29;9.50;99.90
34201;DHT22;20469;55.638;37.670;2022-09-24T06:29:57;9.50;99.90
34201;DHT22;20469;55.638;37.670;2022-09-24T06:32:26;9.60;99.90
34201;DHT22;20469;55.638;37.670;2022-09-24T06:34:53;9.60;99.90
34201;DHT22;20469;55.638;37.670;2022-09-24T06:37:25;9.50;99.90
34201;DHT22;20469;55.638;37.670;2022-09-24T06:39:52;9.60;99.90
34201;DHT22;20469;55.638;37.670;2022-09-24T06:42:20;9.50;99.90
34201;DHT22;20469;55.638;37.670;2022-09-24T06:44:48;9.50;99.90
34201;DHT22;20469;55.638;37.670;2022-09-24T06:47:15;9.50;99.90
34201;DHT22;20469;55.638;37.670;2022-09-24T06:49:43;9.40;99.90
34201;DHT22;20469;55.638;37.670;2022-09-24T06:52:11;9.40;99.90
34201;DHT22;20469;55.638;37.670;2022-09-24T06:54:39;9.50;99.90
34201;DHT22;20469;55.638;37.670;2022-09-24T06:57:07;9.40;99.90
34201;DHT22;20469;55.638;37.670;2022-09-24T06:59:34;9.50;99.90
34201;DHT22;20469;55.638;37.670;2022-09-24T07:02:02;9.60;99.90
34201;DHT22;20469;55.638;37.670;2022-09-24T07:04:30;9.50;99.90
34201;DHT22;20469;55.638;37.670;2022-09-24T07:06:57;9.50;99.90
34201;DHT22;20469;55.638;37.670;2022-09-24T07:09:40;9.70;99.90
34201;DHT22;20469;55.638;37.670;2022-09-24T07:12:08;9.40;99.90
34201;DHT22;20469;55.638;37.670;2022-09-24T07:14:35;9.40;99.90
34201;DHT22;20469;55.638;37.670;2022-09-24T07:17:03;9.50;99.90
34201;DHT22;20469;55.638;37.670;2022-09-24T07:19:31;9.50;99.90
34201;DHT22;20469;55.638;37.670;2022-09-24T07:21:58;9.50;99.90
34201;DHT22;20469;55.638;37.670;2022-09-24T07:24:26;9.60;99.90
34201;DHT22;20469;55.638;37.670;2022-09-24T07:26:53;9.30;99.90
34201;DHT22;20469;55.638;37.670;2022-09-24T07:29:22;9.50;99.90
34201;DHT22;20469;55.638;37.670;2022-09-24T07:31:53;9.60;99.90
34201;DHT22;20469;55.638;37.670;2022-09-24T07:34:21;9.60;99.90
34201;DHT22;20469;55.638;37.670;2022-09-24T07:36:50;9.70;99.90
34201;DHT22;20469;55.638;37.670;2022-09-24T07:39:18;9.40;99.90
34201;DHT22;20469;55.638;37.670;2022-09-24T07:41:46;9.40;99.90
34201;DHT22;20469;55.638;37.670;2022-09-24T07:44:14;9.40;99.90
34201;DHT22;20469;55.638;37.670;2022-09-24T07:46:46;9.40;99.90
34201;DHT22;20469;55.638;37.670;2022-09-24T07:49:14;9.40;99.90
34201;DHT22;20469;55.638;37.670;2022-09-24T07:51:43;9.40;99.90
34201;DHT22;20469;55.638;37.670;2022-09-24T07:54:11;9.50;99.90
34201;DHT22;20469;55.638;37.670;2022-09-24T07:56:45;9.40;99.90
34201;DHT22;20469;55.638;37.670;2022-09-24T07:59:13;9.30;99.90
34201;DHT22;20469;55.638;37.670;2022-09-24T08:01:42;9.30;99.90
34201;DHT22;20469;55.638;37.670;2022-09-24T08:04:11;9.40;99.90
34201;DHT22;20469;55.638;37.670;2022-09-24T08:06:40;9.60;99.90
34201;DHT22;20469;55.638;37.670;2022-09-24T08:09:14;9.50;99.90
34201;DHT22;20469;55.638;37.670;2022-09-24T08:11:43;9.50;99.90
34201;DHT22;20469;55.638;37.670;2022-09-24T08:14:11;9.60;99.90
34201;DHT22;20469;55.638;37.670;2022-09-24T08:16:40;9.70;99.90
34201;DHT22;20469;55.638;37.670;2022-09-24T08:19:09;9.70;99.90
34201;DHT22;20469;55.638;37.670;2022-09-24T08:21:40;9.60;99.90
34201;DHT22;20469;55.638;37.670;2022-09-24T08:24:08;9.60;99.90
34201;DHT22;20469;55.638;37.670;2022-09-24T08:26:38;9.60;99.90
34201;DHT22;20469;55.638;37.670;2022-09-24T08:29:05;9.80;99.90
34201;DHT22;20469;55.638;37.670;2022-09-24T08:31:33;10.00;99.90
34201;DHT22;20469;55.638;37.670;2022-09-24T08:34:01;9.70;99.90
34201;DHT22;20469;55.638;37.670;2022-09-24T08:36:29;9.50;99.90
34201;DHT22;20469;55.638;37.670;2022-09-24T08:38:56;9.60;99.90
34201;DHT22;20469;55.638;37.670;2022-09-24T08:44:28;9.70;99.90
34201;DHT22;20469;55.638;37.670;2022-09-24T08:47:30;9.70;99.90
34201;DHT22;20469;55.638;37.670;2022-09-24T08:50:23;9.80;99.90
34201;DHT22;20469;55.638;37.670;2022-09-24T08:55:45;9.60;99.90
34201;DHT22;20469;55.638;37.670;2022-09-24T09:01:22;9.70;99.90
34201;DHT22;20469;55.638;37.670;2022-09-24T09:04:02;9.70;99.90
34201;DHT22;20469;55.638;37.670;2022-09-24T09:09:47;9.70;99.90
34201;DHT22;20469;55.638;37.670;2022-09-24T09:12:24;9.60;99.90
34201;DHT22;20469;55.638;37.670;2022-09-24T09:15:02;9.50;99.90
34201;DHT22;20469;55.638;37.670;2022-09-24T09:17:44;9.70;99.90
34201;DHT22;20469;55.638;37.670;2022-09-24T09:20:28;9.70;99.90
34201;DHT22;20469;55.638;37.670;2022-09-24T09:23:02;9.80;99.90
34201;DHT22;20469;55.638;37.670;2022-09-24T09:25:34;9.80;99.90
34201;DHT22;20469;55.638;37.670;2022-09-24T09:28:10;9.80;99.90
34201;DHT22;20469;55.638;37.670;2022-09-24T09:30:55;9.30;99.90
34201;DHT22;20469;55.638;37.670;2022-09-24T09:33:37;9.80;99.90
34201;DHT22;20469;55.638;37.670;2022-09-24T09:39:34;9.60;99.90
34201;DHT22;20469;55.638;37.670;2022-09-24T09:42:24;9.70;99.90
34201;DHT22;20469;55.638;37.670;2022-09-24T09:44:53;9.70;99.90
34201;DHT22;20469;55.638;37.670;2022-09-24T09:47:28;9.70;99.90
34201;DHT22;20469;55.638;37.670;2022-09-24T09:50:05;9.80;99.90
34201;DHT22;20469;55.638;37.670;2022-09-24T09:52:36;9.80;99.90
34201;DHT22;20469;55.638;37.670;2022-09-24T09:55:06;9.90;99.90
34201;DHT22;20469;55.638;37.670;2022-09-24T09:57:34;9.80;99.90
34201;DHT22;20469;55.638;37.670;2022-09-24T10:00:03;9.80;99.90
34201;DHT22;20469;55.638;37.670;2022-09-24T10:02:33;9.80;99.90
34201;DHT22;20469;55.638;37.670;2022-09-24T10:05:04;9.90;99.90
34201;DHT22;20469;55.638;37.670;2022-09-24T10:07:43;9.80;99.90
34201;DHT22;20469;55.638;37.670;2022-09-24T10:10:21;10.00;99.90
34201;DHT22;20469;55.638;37.670;2022-09-24T10:12:53;10.10;99.90
34201;DHT22;20469;55.638;37.670;2022-09-24T10:15:22;10.10;99.90
34201;DHT22;20469;55.638;37.670;2022-09-24T10:17:53;10.00;99.90
34201;DHT22;20469;55.638;37.670;2022-09-24T10:20:25;10.00;99.90
34201;DHT22;20469;55.638;37.670;2022-09-24T10:23:02;9.90;99.90
34201;DHT22;20469;55.638;37.670;2022-09-24T10:25:33;9.80;99.90
34201;DHT22;20469;55.638;37.670;2022-09-24T10:28:07;9.70;99.90
34201;DHT22;20469;55.638;37.670;2022-09-24T10:31:02;9.80;99.90
34201;DHT22;20469;55.638;37.670;2022-09-24T10:33:46;9.70;99.90
34201;DHT22;20469;55.638;37.670;2022-09-24T10:36:25;9.80;99.90
34201;DHT22;20469;55.638;37.670;2022-09-24T10:39:11;10.00;99.90
34201;DHT22;20469;55.638;37.670;2022-09-24T10:41:48;10.00;99.90
34201;DHT22;20469;55.638;37.670;2022-09-24T10:44:18;10.30;99.90
34201;DHT22;20469;55.638;37.670;2022-09-24T10:55:47;10.10;99.90
34201;DHT22;20469;55.638;37.670;2022-09-24T11:01:39;10.10;99.90
34201;DHT22;20469;55.638;37.670;2022-09-24T11:04:31;10.10;99.90
34201;DHT22;20469;55.638;37.670;2022-09-24T11:10:39;10.00;99.90
34201;DHT22;20469;55.638;37.670;2022-09-24T11:16:19;10.00;99.90
34201;DHT22;20469;55.638;37.670;2022-09-24T11:22:02;10.30;99.90
34201;DHT22;20469;55.638;37.670;2022-09-24T11:27:47;10.40;99.90
34201;DHT22;20469;55.638;37.670;2022-09-24T11:30:21;10.40;99.90
34201;DHT22;20469;55.638;37.670;2022-09-24T11:36:05;10.50;99.90
34201;DHT22;20469;55.638;37.670;2022-09-24T11:38:57;10.50;99.90
34201;DHT22;20469;55.638;37.670;2022-09-24T11:45:00;10.30;99.90
34201;DHT22;20469;55.638;37.670;2022-09-24T11:47:51;10.20;99.90
34201;DHT22;20469;55.638;37.670;2022-09-24T11:53:41;10.10;99.90
34201;DHT22;20469;55.638;37.670;2022-09-24T11:56:24;10.00;99.90
34201;DHT22;20469;55.638;37.670;2022-09-24T11:59:11;10.20;99.90
34201;DHT22;20469;55.638;37.670;2022-09-24T12:01:46;10.30;99.90
34201;DHT22;20469;55.638;37.670;2022-09-24T12:07:07;10.10;99.90
34201;DHT22;20469;55.638;37.670;2022-09-24T12:09:52;10.10;99.90
34201;DHT22;20469;55.638;37.670;2022-09-24T12:12:28;10.00;99.90
34201;DHT22;20469;55.638;37.670;2022-09-24T12:15:11;10.00;99.90
34201;DHT22;20469;55.638;37.670;2022-09-24T12:17:45;10.20;99.90
34201;DHT22;20469;55.638;37.670;2022-09-24T12:20:23;10.20;99.90
34201;DHT22;20469;55.638;37.670;2022-09-24T12:22:59;10.30;99.90
34201;DHT22;20469;55.638;37.670;2022-09-24T12:25:33;10.30;99.90
34201;DHT22;20469;55.638;37.670;2022-09-24T12:28:11;10.50;99.90
34201;DHT22;20469;55.638;37.670;2022-09-24T12:30:46;10.40;99.90
34201;DHT22;20469;55.638;37.670;2022-09-24T12:33:44;10.30;99.90
34201;DHT22;20469;55.638;37.670;2022-09-24T12:36:32;10.20;99.90
34201;DHT22;20469;55.638;37.670;2022-09-24T12:39:07;10.20;99.90
34201;DHT22;20469;55.638;37.670;2022-09-24T12:41:42;10.30;99.90
34201;DHT22;20469;55.638;37.670;2022-09-24T12:44:18;10.20;99.90
34201;DHT22;20469;55.638;37.670;2022-09-24T12:46:54;10.40;99.90
34201;DHT22;20469;55.638;37.670;2022-09-24T12:49:32;10.20;99.90
34201;DHT22;20469;55.638;37.670;2022-09-24T12:52:14;10.20;99.90
34201;DHT22;20469;55.638;37.670;2022-09-24T12:54:44;10.00;99.90
34201;DHT22;20469;55.638;37.670;2022-09-24T12:57:19;10.00;99.90
34201;DHT22;20469;55.638;37.670;2022-09-24T12:59:55;10.10;99.90
34201;DHT22;20469;55.638;37.670;2022-09-24T13:02:28;10.00;99.90
34201;DHT22;20469;55.638;37.670;2022-09-24T13:05:17;9.90;99.90
34201;DHT22;20469;55.638;37.670;2022-09-24T13:10:40;9.90;99.90
34201;DHT22;20469;55.638;37.670;2022-09-24T13:13:23;9.90;99.90
34201;DHT22;20469;55.638;37.670;2022-09-24T13:16:13;9.80;99.90
34201;DHT22;20469;55.638;37.670;2022-09-24T13:18:51;10.00;99.90
34201;DHT22;20469;55.638;37.670;2022-09-24T13:21:24;9.90;99.90
34201;DHT22;20469;55.638;37.670;2022-09-24T13:23:53;9.80;99.90
34201;DHT22;20469;55.638;37.670;2022-09-24T13:26:32;9.80;99.90
34201;DHT22;20469;55.638;37.670;2022-09-24T13:29:04;9.90;99.90
34201;DHT22;20469;55.638;37.670;2022-09-24T13:31:41;9.90;99.90
34201;DHT22;20469;55.638;37.670;2022-09-24T13:34:21;9.90;99.90
34201;DHT22;20469;55.638;37.670;2022-09-24T13:37:01;9.80;99.90
34201;DHT22;20469;55.638;37.670;2022-09-24T13:39:55;9.80;99.90
34201;DHT22;20469;55.638;37.670;2022-09-24T13:42:42;9.90;99.90
34201;DHT22;20469;55.638;37.670;2022-09-24T13:45:18;9.80;99.90
34201;DHT22;20469;55.638;37.670;2022-09-24T13:50:42;9.80;99.90
34201;DHT22;20469;55.638;37.670;2022-09-24T13:53:21;9.90;99.90
34201;DHT22;20469;55.638;37.670;2022-09-24T13:55:53;9.90;99.90
34201;DHT22;20469;55.638;37.670;2022-09-24T13:58:32;9.80;99.90
34201;DHT22;20469;55.638;37.670;2022-09-24T14:01:04;9.90;99.90
34201;DHT22;20469;55.638;37.670;2022-09-24T14:03:40;9.80;99.90
34201;DHT22;20469;55.638;37.670;2022-09-24T14:06:12;9.90;99.90
34201;DHT22;20469;55.638;37.670;2022-09-24T14:08:42;9.80;99.90
34201;DHT22;20469;55.638;37.670;2022-09-24T14:11:19;9.90;99.90
34201;DHT22;20469;55.638;37.670;2022-09-24T14:13:48;9.80;99.90
34201;DHT22;20469;55.638;37.670;2022-09-24T14:16:20;9.80;99.90
34201;DHT22;20469;55.638;37.670;2022-09-24T14:18:59;9.80;99.90
34201;DHT22;20469;55.638;37.670;2022-09-24T14:21:38;9.80;99.90
34201;DHT22;20469;55.638;37.670;2022-09-24T14:24:17;9.90;99.90
34201;DHT22;20469;55.638;37.670;2022-09-24T14:26:57;10.00;99.90
34201;DHT22;20469;55.638;37.670;2022-09-24T14:29:28;10.00;99.90
34201;DHT22;20469;55.638;37.670;2022-09-24T14:32:01;9.90;99.90
34201;DHT22;20469;55.638;37.670;2022-09-24T14:34:37;9.80;99.90
34201;DHT22;20469;55.638;37.670;2022-09-24T14:37:13;9.80;99.90
34201;DHT22;20469;55.638;37.670;2022-09-24T14:39:45;9.90;99.90
34201;DHT22;20469;55.638;37.670;2022-09-24T14:42:27;9.70;99.90
34201;DHT22;20469;55.638;37.670;2022-09-24T14:44:57;9.80;99.90
34201;DHT22;20469;55.638;37.670;2022-09-24T14:47:28;9.80;99.90
34201;DHT22;20469;55.638;37.670;2022-09-24T14:49:57;9.80;99.90
34201;DHT22;20469;55.638;37.670;2022-09-24T14:52:29;9.90;99.90
34201;DHT22;20469;55.638;37.670;2022-09-24T14:55:18;9.80;99.90
34201;DHT22;20469;55.638;37.670;2022-09-24T14:57:48;9.80;99.90
34201;DHT22;20469;55.638;37.670;2022-09-24T15:00:26;9.70;99.90
34201;DHT22;20469;55.638;37.670;2022-09-24T15:03:05;9.60;99.90
34201;DHT22;20469;55.638;37.670;2022-09-24T15:05:38;9.80;99.90
34201;DHT22;20469;55.638;37.670;2022-09-24T15:08:24;9.80;99.90
34201;DHT22;20469;55.638;37.670;2022-09-24T15:10:58;9.70;99.90
34201;DHT22;20469;55.638;37.670;2022-09-24T15:13:32;9.90;99.90
34201;DHT22;20469;55.638;37.670;2022-09-24T15:16:04;9.70;99.90
34201;DHT22;20469;55.638;37.670;2022-09-24T15:18:33;9.80;99.90
34201;DHT22;20469;55.638;37.670;2022-09-24T15:21:03;9.70;99.90
34201;DHT22;20469;55.638;37.670;2022-09-24T15:23:35;9.60;99.90
34201;DHT22;20469;55.638;37.670;2022-09-24T15:26:04;9.60;99.90
34201;DHT22;20469;55.638;37.670;2022-09-24T15:28:33;9.60;99.90
34201;DHT22;20469;55.638;37.670;2022-09-24T15:31:01;9.60;99.90
34201;DHT22;20469;55.638;37.670;2022-09-24T15:33:29;9.60;99.90
34201;DHT22;20469;55.638;37.670;2022-09-24T15:35:58;9.60;99.90
34201;DHT22;20469;55.638;37.670;2022-09-24T15:38:27;9.70;99.90
34201;DHT22;20469;55.638;37.670;2022-09-24T15:40:56;9.50;99.90
34201;DHT22;20469;55.638;37.670;2022-09-24T15:43:26;9.70;99.90
34201;DHT22;20469;55.638;37.670;2022-09-24T15:45:55;9.70;99.90
34201;DHT22;20469;55.638;37.670;2022-09-24T15:48:24;9.60;99.90
34201;DHT22;20469;55.638;37.670;2022-09-24T15:50:53;9.70;99.90
34201;DHT22;20469;55.638;37.670;2022-09-24T15:53:25;9.50;99.90
34201;DHT22;20469;55.638;37.670;2022-09-24T15:55:58;9.60;99.90
34201;DHT22;20469;55.638;37.670;2022-09-24T15:58:28;9.60;99.90
34201;DHT22;20469;55.638;37.670;2022-09-24T16:00:57;9.50;99.90
34201;DHT22;20469;55.638;37.670;2022-09-24T16:03:28;9.60;99.90
34201;DHT22;20469;55.638;37.670;2022-09-24T16:05:58;9.50;99.90
34201;DHT22;20469;55.638;37.670;2022-09-24T16:08:27;9.50;99.90
34201;DHT22;20469;55.638;37.670;2022-09-24T16:10:56;9.50;99.90
34201;DHT22;20469;55.638;37.670;2022-09-24T16:13:25;9.50;99.90
34201;DHT22;20469;55.638;37.670;2022-09-24T16:15:54;9.60;99.90
34201;DHT22;20469;55.638;37.670;2022-09-24T16:18:33;9.90;99.90
34201;DHT22;20469;55.638;37.670;2022-09-24T16:21:07;9.70;99.90
34201;DHT22;20469;55.638;37.670;2022-09-24T16:23:38;9.60;99.90
34201;DHT22;20469;55.638;37.670;2022-09-24T16:26:07;9.60;99.90
34201;DHT22;20469;55.638;37.670;2022-09-24T16:28:36;9.60;99.90
34201;DHT22;20469;55.638;37.670;2022-09-24T16:31:05;9.50;99.90
34201;DHT22;20469;55.638;37.670;2022-09-24T16:33:38;9.60;99.90
34201;DHT22;20469;55.638;37.670;2022-09-24T16:36:08;9.60;99.90
34201;DHT22;20469;55.638;37.670;2022-09-24T16:38:37;9.60;99.90
34201;DHT22;20469;55.638;37.670;2022-09-24T16:41:06;9.60;99.90
34201;DHT22;20469;55.638;37.670;2022-09-24T16:43:36;9.50;99.90
34201;DHT22;20469;55.638;37.670;2022-09-24T16:46:07;9.50;99.90
34201;DHT22;20469;55.638;37.670;2022-09-24T16:48:37;9.70;99.90
34201;DHT22;20469;55.638;37.670;2022-09-24T16:51:08;9.70;99.90
34201;DHT22;20469;55.638;37.670;2022-09-24T16:53:37;10.40;99.90
34201;DHT22;20469;55.638;37.670;2022-09-24T16:56:09;9.70;99.90
34201;DHT22;20469;55.638;37.670;2022-09-24T16:58:42;9.80;99.90
34201;DHT22;20469;55.638;37.670;2022-09-24T17:01:13;9.70;99.90
34201;DHT22;20469;55.638;37.670;2022-09-24T17:03:43;9.60;99.90